メインページ
METAR-TAF:

METAR-TAF

空港 :

マッカラン国際空港

ラスベガス, ネバダ州, アメリカ合衆国

緯度: 36-04-44N, 経度: 115-09-19W, 海抜: 663m

現時点の気象観測

当レポートは24分前の10:56(UTC)に作成
南西の風 3kt
気温 9°C
湿度 20%
気圧 1030 hPa
視程: 12.9km
高度25000ftの曇り

METAR: KLAS 141056Z 23003KT 8SM OVC250 09/M13 A3041 RMK AO2 SLP292 T00891128

時間: 03:20 (11:20 UTC)

予報

当レポートは2時間36分前の08:44(UTC)に作成
予報は14日の 09時(UTC)から 15日の 12時(UTC)まで有効
南西の風 5kt
視程: 10km
高度25000ftの千切れ雲あり
14日の 1600時(UTC)から
変向風 5kt
視程: 10km
高度25000ftの雲は散在している
15日の 0300時(UTC)から
南西の風 5kt
視程: 10km
高度25000ftの雲は散在している

TAF: KLAS 140844Z 1409/1512 22005KT P6SM BKN250 FM141600 VRB05KT P6SM SCT250 FM150300 22005KT P6SM SCT250

4,000以上の空港の気象観測と天気予報(METAR報とTAF報)

利用可能な観測所は地図上に黄色い丸と赤い丸で示す。

丸の上にカーソルを重ねると観測所名を参照できる。

次にクリックすると気象観測と天気予報を参照できる。

マップの切り替え:黒色「×」印の緑ボタンをクリックして拡大、「-」印の緑ボタンをクリックして縮小、緑色の三角印をクリックして隣りの地図に切り替え


METAR-TAF: